AFL3107 LOWI-LFKF
Flight info
| Callsign | AFL3107 |
|---|---|
| Flight time | 1h 21m |
| Altitude | 19000 |
| Route | RTT2Q/08 RTT Y107 BAKOR N503 VIC L12 LUMAV T558 OMAKU Q125 IBROS/N0355F130 Z154 ASKAG |
| Aircraft | B738/M-SDE2E3FGHIRWXY/LB1 |
Departure
| Time | 2026-04-17 13:47 |
|---|---|
| Airport | Innsbruck Airport (LOWI) |
Arrival
| Time | 2026-04-17 15:08 |
|---|---|
| Airport | Figari Sud-Corse Airport (LFKF) |
| Time | Latitude | Longitude | Altitude | Speed | Heading |
|---|---|---|---|---|---|
| 2026-04-17 13:03 | 47.25844 | 11.35235 | 1903 ft | 0 kts | 171° |
| 2026-04-17 13:37 | 47.25857 | 11.35232 | 1916 ft | 4 kts | 175° |
| 2026-04-17 13:37 | 47.25883 | 11.35233 | 1903 ft | 4 kts | 199° |
| 2026-04-17 13:38 | 47.25901 | 11.35252 | 1889 ft | 3 kts | 257° |
| 2026-04-17 13:38 | 47.25901 | 11.35256 | 1889 ft | 1 kts | 260° |
| 2026-04-17 13:40 | 47.25899 | 11.35238 | 1895 ft | 5 kts | 261° |
| 2026-04-17 13:40 | 47.25889 | 11.35142 | 1900 ft | 12 kts | 261° |
| 2026-04-17 13:41 | 47.25874 | 11.35008 | 1901 ft | 15 kts | 260° |
| 2026-04-17 13:41 | 47.25856 | 11.34843 | 1903 ft | 18 kts | 259° |
| 2026-04-17 13:41 | 47.25836 | 11.34652 | 1897 ft | 20 kts | 261° |
| 2026-04-17 13:41 | 47.25812 | 11.34442 | 1903 ft | 21 kts | 260° |
| 2026-04-17 13:42 | 47.25790 | 11.34232 | 1897 ft | 21 kts | 261° |
| 2026-04-17 13:42 | 47.25772 | 11.34025 | 1903 ft | 20 kts | 275° |
| 2026-04-17 13:42 | 47.25813 | 11.33875 | 1895 ft | 0 kts | 305° |
| 2026-04-17 13:43 | 47.25814 | 11.33872 | 1895 ft | 1 kts | 305° |
| 2026-04-17 13:43 | 47.25832 | 11.33834 | 1903 ft | 7 kts | 305° |
| 2026-04-17 13:43 | 47.25871 | 11.33757 | 1897 ft | 12 kts | 306° |
| 2026-04-17 13:44 | 47.25917 | 11.33665 | 1903 ft | 10 kts | 304° |
| 2026-04-17 13:44 | 47.25929 | 11.33562 | 1903 ft | 10 kts | 264° |
| 2026-04-17 13:44 | 47.25918 | 11.33450 | 1893 ft | 12 kts | 261° |
| 2026-04-17 13:44 | 47.25903 | 11.33299 | 1903 ft | 17 kts | 261° |
| 2026-04-17 13:45 | 47.25849 | 11.33185 | 1893 ft | 13 kts | 238° |
| 2026-04-17 13:45 | 47.25862 | 11.33082 | 1898 ft | 11 kts | 353° |
| 2026-04-17 13:45 | 47.25890 | 11.33165 | 1899 ft | 10 kts | 82° |
| 2026-04-17 13:45 | 47.25894 | 11.33211 | 1900 ft | 0 kts | 82° |
| 2026-04-17 13:46 | 47.25894 | 11.33213 | 1903 ft | 3 kts | 82° |
| 2026-04-17 13:46 | 47.25940 | 11.33651 | 1900 ft | 87 kts | 81° |
| 2026-04-17 13:46 | 47.26080 | 11.34918 | 1906 ft | 161 kts | 80° |
| 2026-04-17 13:46 | 47.26291 | 11.36738 | 2432 ft | 192 kts | 79° |
| 2026-04-17 13:47 | 47.26568 | 11.38759 | 3142 ft | 213 kts | 76° |
| 2026-04-17 13:47 | 47.26864 | 11.40901 | 4091 ft | 209 kts | 77° |
| 2026-04-17 13:47 | 47.27157 | 11.42971 | 5052 ft | 206 kts | 76° |
| 2026-04-17 13:47 | 47.27482 | 11.44997 | 5948 ft | 203 kts | 73° |
| 2026-04-17 13:48 | 47.27871 | 11.47013 | 6681 ft | 205 kts | 72° |
| 2026-04-17 13:48 | 47.28271 | 11.49058 | 7301 ft | 210 kts | 72° |
| 2026-04-17 13:48 | 47.28532 | 11.50435 | 7734 ft | 211 kts | 74° |
| 2026-04-17 13:48 | 47.28904 | 11.52549 | 8382 ft | 215 kts | 73° |
| 2026-04-17 13:49 | 47.29290 | 11.54699 | 9053 ft | 218 kts | 73° |
| 2026-04-17 13:49 | 47.29688 | 11.56874 | 9716 ft | 221 kts | 74° |
| 2026-04-17 13:49 | 47.30232 | 11.59806 | 10509 ft | 227 kts | 73° |
| 2026-04-17 13:49 | 47.30525 | 11.61370 | 10722 ft | 243 kts | 73° |
| 2026-04-17 13:50 | 47.30985 | 11.63820 | 11205 ft | 256 kts | 72° |
| 2026-04-17 13:50 | 47.31717 | 11.66212 | 11858 ft | 262 kts | 54° |
| 2026-04-17 13:50 | 47.32832 | 11.68501 | 12102 ft | 288 kts | 51° |
| 2026-04-17 13:50 | 47.34072 | 11.71001 | 12320 ft | 315 kts | 52° |
| 2026-04-17 13:51 | 47.35562 | 11.74062 | 12556 ft | 342 kts | 53° |
| 2026-04-17 13:51 | 47.36782 | 11.76617 | 13040 ft | 353 kts | 53° |
| 2026-04-17 13:51 | 47.38203 | 11.79620 | 13848 ft | 356 kts | 53° |
| 2026-04-17 13:51 | 47.39619 | 11.82637 | 14641 ft | 358 kts | 54° |
| 2026-04-17 13:52 | 47.40641 | 11.85983 | 15281 ft | 370 kts | 77° |
| 2026-04-17 13:52 | 47.40585 | 11.89807 | 15985 ft | 381 kts | 103° |
| 2026-04-17 13:52 | 47.39411 | 11.93337 | 16667 ft | 389 kts | 128° |
| 2026-04-17 13:52 | 47.37335 | 11.95905 | 17284 ft | 396 kts | 153° |
| 2026-04-17 13:53 | 47.34694 | 11.97104 | 17951 ft | 400 kts | 174° |
| 2026-04-17 13:53 | 47.31927 | 11.96955 | 18564 ft | 401 kts | 195° |
| 2026-04-17 13:53 | 47.29389 | 11.95312 | 19127 ft | 398 kts | 215° |
| 2026-04-17 13:53 | 47.27050 | 11.93112 | 19768 ft | 402 kts | 212° |
| 2026-04-17 13:54 | 47.21793 | 11.90022 | 20907 ft | 415 kts | 196° |
| 2026-04-17 13:54 | 47.18954 | 11.89147 | 21493 ft | 419 kts | 191° |
| 2026-04-17 13:55 | 47.13124 | 11.87956 | 22622 ft | 427 kts | 188° |
| 2026-04-17 13:55 | 47.10157 | 11.87418 | 23140 ft | 431 kts | 189° |
| 2026-04-17 13:55 | 47.04209 | 11.86279 | 24126 ft | 437 kts | 189° |
| 2026-04-17 13:56 | 46.98181 | 11.84859 | 25012 ft | 441 kts | 194° |
| 2026-04-17 13:56 | 46.95176 | 11.83889 | 25459 ft | 443 kts | 195° |
| 2026-04-17 13:56 | 46.92174 | 11.82844 | 25900 ft | 445 kts | 196° |
| 2026-04-17 13:57 | 46.89151 | 11.81795 | 26294 ft | 448 kts | 195° |
| 2026-04-17 13:57 | 46.86101 | 11.80802 | 26666 ft | 451 kts | 194° |
| 2026-04-17 13:57 | 46.79920 | 11.78854 | 27386 ft | 457 kts | 195° |
| 2026-04-17 13:58 | 46.76803 | 11.77875 | 27774 ft | 459 kts | 195° |
| 2026-04-17 13:58 | 46.70524 | 11.75896 | 28529 ft | 464 kts | 195° |
| 2026-04-17 13:58 | 46.67360 | 11.74896 | 28885 ft | 467 kts | 195° |
| 2026-04-17 13:59 | 46.60969 | 11.72927 | 29577 ft | 473 kts | 192° |
| 2026-04-17 13:59 | 46.57673 | 11.72451 | 29865 ft | 479 kts | 185° |
| 2026-04-17 13:59 | 46.54338 | 11.72328 | 30214 ft | 480 kts | 184° |
| 2026-04-17 14:00 | 46.50995 | 11.72236 | 30553 ft | 481 kts | 184° |
| 2026-04-17 14:00 | 46.47657 | 11.72112 | 30952 ft | 479 kts | 184° |
| 2026-04-17 14:00 | 46.44331 | 11.71947 | 31340 ft | 478 kts | 185° |
| 2026-04-17 14:00 | 46.41007 | 11.71760 | 31691 ft | 478 kts | 185° |
| 2026-04-17 14:01 | 46.37685 | 11.71570 | 32062 ft | 477 kts | 185° |
| 2026-04-17 14:01 | 46.34371 | 11.71389 | 32459 ft | 476 kts | 185° |
| 2026-04-17 14:01 | 46.31069 | 11.71215 | 32797 ft | 475 kts | 185° |
| 2026-04-17 14:01 | 46.27759 | 11.71041 | 33114 ft | 476 kts | 185° |
| 2026-04-17 14:02 | 46.24496 | 11.70871 | 33472 ft | 475 kts | 185° |
| 2026-04-17 14:02 | 46.21204 | 11.70699 | 33858 ft | 473 kts | 185° |
| 2026-04-17 14:02 | 46.17912 | 11.70525 | 34200 ft | 473 kts | 185° |
| 2026-04-17 14:02 | 46.14623 | 11.70352 | 34474 ft | 473 kts | 185° |
| 2026-04-17 14:03 | 46.11334 | 11.70180 | 34742 ft | 472 kts | 185° |
| 2026-04-17 14:03 | 46.08057 | 11.70006 | 35054 ft | 471 kts | 185° |
| 2026-04-17 14:03 | 46.04779 | 11.69828 | 35370 ft | 470 kts | 185° |
| 2026-04-17 14:03 | 46.01511 | 11.69651 | 35675 ft | 469 kts | 185° |
| 2026-04-17 14:04 | 45.98250 | 11.69475 | 35975 ft | 467 kts | 185° |
| 2026-04-17 14:04 | 45.95003 | 11.69300 | 36130 ft | 467 kts | 185° |
| 2026-04-17 14:04 | 45.91753 | 11.69126 | 36111 ft | 467 kts | 185° |
| 2026-04-17 14:05 | 45.85264 | 11.68780 | 36138 ft | 467 kts | 185° |
| 2026-04-17 14:05 | 45.78764 | 11.68434 | 36114 ft | 468 kts | 185° |
| 2026-04-17 14:06 | 45.72259 | 11.68088 | 36118 ft | 467 kts | 185° |
| 2026-04-17 14:06 | 45.65761 | 11.67744 | 36126 ft | 467 kts | 185° |
| 2026-04-17 14:07 | 45.59266 | 11.67351 | 36123 ft | 467 kts | 185° |
| 2026-04-17 14:07 | 45.52775 | 11.66861 | 36120 ft | 467 kts | 185° |
| 2026-04-17 14:08 | 45.46289 | 11.66371 | 36125 ft | 466 kts | 185° |
| 2026-04-17 14:08 | 45.39857 | 11.65901 | 36127 ft | 466 kts | 185° |
| 2026-04-17 14:09 | 45.33387 | 11.65434 | 36123 ft | 466 kts | 185° |
| 2026-04-17 14:09 | 45.26916 | 11.64968 | 36132 ft | 465 kts | 185° |
| 2026-04-17 14:10 | 45.20444 | 11.64502 | 36116 ft | 466 kts | 185° |
| 2026-04-17 14:10 | 45.13976 | 11.64037 | 36113 ft | 465 kts | 185° |
| 2026-04-17 14:11 | 45.07511 | 11.63560 | 36117 ft | 465 kts | 185° |
| 2026-04-17 14:11 | 45.01056 | 11.63081 | 36118 ft | 465 kts | 185° |
| 2026-04-17 14:12 | 44.94594 | 11.62604 | 36110 ft | 464 kts | 185° |
| 2026-04-17 14:12 | 44.88145 | 11.62130 | 36118 ft | 464 kts | 185° |
| 2026-04-17 14:13 | 44.78534 | 11.60808 | 36116 ft | 460 kts | 196° |
| 2026-04-17 14:13 | 44.72330 | 11.58587 | 36113 ft | 460 kts | 197° |
| 2026-04-17 14:14 | 44.66123 | 11.56342 | 36112 ft | 461 kts | 197° |
| 2026-04-17 14:14 | 44.59895 | 11.54156 | 36097 ft | 461 kts | 196° |
| 2026-04-17 14:15 | 44.53695 | 11.52014 | 36100 ft | 462 kts | 196° |
| 2026-04-17 14:15 | 44.47449 | 11.49865 | 36113 ft | 462 kts | 196° |
| 2026-04-17 14:16 | 44.41190 | 11.47713 | 36115 ft | 463 kts | 196° |
| 2026-04-17 14:16 | 44.34931 | 11.45564 | 36112 ft | 463 kts | 196° |
| 2026-04-17 14:17 | 44.28663 | 11.43417 | 36129 ft | 464 kts | 196° |
| 2026-04-17 14:17 | 44.22389 | 11.41272 | 36141 ft | 465 kts | 196° |
| 2026-04-17 14:18 | 44.16107 | 11.39117 | 36139 ft | 464 kts | 198° |
| 2026-04-17 14:18 | 44.10236 | 11.35604 | 36147 ft | 457 kts | 212° |
| 2026-04-17 14:19 | 44.04616 | 11.31410 | 36113 ft | 458 kts | 210° |
| 2026-04-17 14:19 | 43.98947 | 11.27348 | 36116 ft | 458 kts | 210° |
| 2026-04-17 14:20 | 43.93400 | 11.23408 | 36057 ft | 458 kts | 210° |
| 2026-04-17 14:20 | 43.87922 | 11.19520 | 36058 ft | 457 kts | 210° |
| 2026-04-17 14:21 | 43.82264 | 11.15502 | 36051 ft | 457 kts | 210° |
| 2026-04-17 14:21 | 43.76604 | 11.11490 | 36049 ft | 457 kts | 210° |
| 2026-04-17 14:22 | 43.70944 | 11.07486 | 36051 ft | 457 kts | 210° |
| 2026-04-17 14:22 | 43.65281 | 11.03489 | 36053 ft | 457 kts | 210° |
| 2026-04-17 14:23 | 43.59612 | 10.99497 | 36058 ft | 458 kts | 210° |
| 2026-04-17 14:23 | 43.53969 | 10.95531 | 36062 ft | 458 kts | 210° |
| 2026-04-17 14:24 | 43.48292 | 10.91549 | 36059 ft | 458 kts | 209° |
| 2026-04-17 14:24 | 43.42611 | 10.87574 | 36062 ft | 458 kts | 210° |
| 2026-04-17 14:25 | 43.36915 | 10.83596 | 36055 ft | 459 kts | 210° |
| 2026-04-17 14:25 | 43.31223 | 10.79630 | 36052 ft | 459 kts | 209° |
| 2026-04-17 14:26 | 43.25505 | 10.75652 | 35625 ft | 466 kts | 209° |
| 2026-04-17 14:26 | 43.22612 | 10.73643 | 35094 ft | 464 kts | 209° |
| 2026-04-17 14:26 | 43.19738 | 10.71651 | 34657 ft | 460 kts | 209° |
| 2026-04-17 14:27 | 43.16892 | 10.69681 | 34232 ft | 457 kts | 209° |
| 2026-04-17 14:27 | 43.14065 | 10.67726 | 33758 ft | 453 kts | 210° |
| 2026-04-17 14:27 | 43.11260 | 10.65787 | 33289 ft | 450 kts | 210° |
| 2026-04-17 14:27 | 43.08479 | 10.63867 | 32839 ft | 446 kts | 209° |
| 2026-04-17 14:28 | 43.05725 | 10.61967 | 32429 ft | 441 kts | 210° |
| 2026-04-17 14:28 | 43.02998 | 10.60087 | 32006 ft | 438 kts | 209° |
| 2026-04-17 14:28 | 43.00290 | 10.58222 | 31592 ft | 434 kts | 210° |
| 2026-04-17 14:28 | 42.97604 | 10.56375 | 31175 ft | 430 kts | 210° |
| 2026-04-17 14:29 | 42.94979 | 10.54570 | 30785 ft | 427 kts | 210° |
| 2026-04-17 14:29 | 42.92343 | 10.52760 | 30381 ft | 423 kts | 210° |
| 2026-04-17 14:29 | 42.89720 | 10.50960 | 29958 ft | 420 kts | 209° |
| 2026-04-17 14:29 | 42.87117 | 10.49176 | 29499 ft | 417 kts | 209° |
| 2026-04-17 14:30 | 42.84540 | 10.47411 | 29092 ft | 412 kts | 209° |
| 2026-04-17 14:30 | 42.81991 | 10.45667 | 28659 ft | 408 kts | 209° |
| 2026-04-17 14:30 | 42.79462 | 10.43937 | 28259 ft | 404 kts | 209° |
| 2026-04-17 14:30 | 42.76957 | 10.42226 | 27840 ft | 401 kts | 209° |
| 2026-04-17 14:31 | 42.74471 | 10.40531 | 27436 ft | 398 kts | 208° |
| 2026-04-17 14:31 | 42.71935 | 10.39031 | 27050 ft | 396 kts | 200° |
| 2026-04-17 14:31 | 42.69304 | 10.37991 | 26738 ft | 392 kts | 197° |
| 2026-04-17 14:31 | 42.66674 | 10.37040 | 26333 ft | 390 kts | 196° |
| 2026-04-17 14:32 | 42.64059 | 10.36106 | 25946 ft | 388 kts | 196° |
| 2026-04-17 14:32 | 42.61461 | 10.35166 | 25555 ft | 386 kts | 196° |
| 2026-04-17 14:32 | 42.58877 | 10.34216 | 25165 ft | 384 kts | 196° |
| 2026-04-17 14:32 | 42.56306 | 10.33261 | 24775 ft | 382 kts | 197° |
| 2026-04-17 14:33 | 42.53743 | 10.32302 | 24374 ft | 381 kts | 196° |
| 2026-04-17 14:33 | 42.51190 | 10.31345 | 23983 ft | 380 kts | 196° |
| 2026-04-17 14:33 | 42.48643 | 10.30390 | 23573 ft | 379 kts | 196° |
| 2026-04-17 14:33 | 42.46104 | 10.29439 | 23128 ft | 378 kts | 196° |
| 2026-04-17 14:34 | 42.43580 | 10.28494 | 22710 ft | 376 kts | 196° |
| 2026-04-17 14:34 | 42.41063 | 10.27552 | 22315 ft | 373 kts | 196° |
| 2026-04-17 14:34 | 42.38569 | 10.26621 | 21924 ft | 371 kts | 196° |
| 2026-04-17 14:34 | 42.36089 | 10.25696 | 21539 ft | 368 kts | 196° |
| 2026-04-17 14:35 | 42.34453 | 10.25087 | 21271 ft | 367 kts | 196° |
| 2026-04-17 14:35 | 42.31997 | 10.24173 | 20876 ft | 366 kts | 196° |
| 2026-04-17 14:35 | 42.29548 | 10.23264 | 20488 ft | 364 kts | 197° |
| 2026-04-17 14:35 | 42.27114 | 10.22361 | 20109 ft | 362 kts | 197° |
| 2026-04-17 14:36 | 42.24688 | 10.21461 | 19727 ft | 360 kts | 197° |
| 2026-04-17 14:36 | 42.22278 | 10.20567 | 19353 ft | 359 kts | 197° |
| 2026-04-17 14:36 | 42.19876 | 10.19677 | 18968 ft | 357 kts | 197° |
| 2026-04-17 14:36 | 42.17484 | 10.18792 | 18608 ft | 356 kts | 197° |
| 2026-04-17 14:37 | 42.15102 | 10.17910 | 18200 ft | 355 kts | 197° |
| 2026-04-17 14:37 | 42.12726 | 10.17032 | 17791 ft | 353 kts | 197° |
| 2026-04-17 14:37 | 42.10366 | 10.16160 | 17399 ft | 351 kts | 197° |
| 2026-04-17 14:37 | 42.08019 | 10.15294 | 17019 ft | 348 kts | 197° |
| 2026-04-17 14:38 | 42.05693 | 10.14436 | 16650 ft | 346 kts | 197° |
| 2026-04-17 14:38 | 42.03379 | 10.13583 | 16288 ft | 343 kts | 197° |
| 2026-04-17 14:38 | 42.01085 | 10.12738 | 15923 ft | 341 kts | 197° |
| 2026-04-17 14:38 | 41.98801 | 10.11897 | 15561 ft | 339 kts | 197° |
| 2026-04-17 14:39 | 41.96559 | 10.11072 | 15201 ft | 337 kts | 197° |
| 2026-04-17 14:39 | 41.94302 | 10.10243 | 14838 ft | 336 kts | 197° |
| 2026-04-17 14:39 | 41.92024 | 10.09406 | 14477 ft | 334 kts | 197° |
| 2026-04-17 14:39 | 41.89817 | 10.08595 | 14131 ft | 333 kts | 197° |
| 2026-04-17 14:40 | 41.87590 | 10.07779 | 13767 ft | 331 kts | 197° |
| 2026-04-17 14:40 | 41.85372 | 10.06966 | 13376 ft | 329 kts | 197° |
| 2026-04-17 14:40 | 41.83177 | 10.06144 | 13006 ft | 327 kts | 200° |
| 2026-04-17 14:40 | 41.81237 | 10.04649 | 12641 ft | 320 kts | 226° |
| 2026-04-17 14:41 | 41.79959 | 10.02272 | 12320 ft | 312 kts | 247° |
| 2026-04-17 14:41 | 41.79372 | 9.99522 | 11983 ft | 306 kts | 266° |
| 2026-04-17 14:41 | 41.79279 | 9.96698 | 11664 ft | 302 kts | 271° |
| 2026-04-17 14:41 | 41.79257 | 9.93888 | 11321 ft | 301 kts | 271° |
| 2026-04-17 14:42 | 41.79241 | 9.91093 | 10985 ft | 299 kts | 271° |
| 2026-04-17 14:42 | 41.79218 | 9.88311 | 10651 ft | 298 kts | 271° |
| 2026-04-17 14:42 | 41.79187 | 9.85548 | 10421 ft | 293 kts | 271° |
| 2026-04-17 14:42 | 41.79150 | 9.82861 | 10282 ft | 285 kts | 271° |
| 2026-04-17 14:43 | 41.79110 | 9.80239 | 10151 ft | 277 kts | 271° |
| 2026-04-17 14:43 | 41.79069 | 9.77688 | 9949 ft | 273 kts | 271° |
| 2026-04-17 14:43 | 41.79027 | 9.75157 | 9656 ft | 271 kts | 270° |
| 2026-04-17 14:43 | 41.78834 | 9.72644 | 9369 ft | 271 kts | 263° |
| 2026-04-17 14:44 | 41.78515 | 9.70165 | 9084 ft | 270 kts | 262° |
| 2026-04-17 14:44 | 41.78183 | 9.67698 | 8805 ft | 268 kts | 262° |
| 2026-04-17 14:44 | 41.77858 | 9.65243 | 8528 ft | 267 kts | 262° |
| 2026-04-17 14:44 | 41.77543 | 9.62795 | 8248 ft | 266 kts | 263° |
| 2026-04-17 14:45 | 41.77235 | 9.60356 | 7967 ft | 265 kts | 263° |
| 2026-04-17 14:45 | 41.76932 | 9.57925 | 7694 ft | 264 kts | 263° |
| 2026-04-17 14:45 | 41.76632 | 9.55508 | 7424 ft | 263 kts | 263° |
| 2026-04-17 14:45 | 41.76332 | 9.53094 | 7155 ft | 262 kts | 263° |
| 2026-04-17 14:46 | 41.76033 | 9.50688 | 6884 ft | 261 kts | 262° |
| 2026-04-17 14:46 | 41.75697 | 9.49138 | 6681 ft | 265 kts | 245° |
| 2026-04-17 14:47 | 41.75432 | 9.48538 | 6600 ft | 266 kts | 236° |
| 2026-04-17 14:47 | 41.74265 | 9.46674 | 6373 ft | 264 kts | 231° |
| 2026-04-17 14:47 | 41.73088 | 9.44831 | 6241 ft | 257 kts | 230° |
| 2026-04-17 14:47 | 41.71947 | 9.43028 | 6067 ft | 252 kts | 231° |
| 2026-04-17 14:48 | 41.70802 | 9.41256 | 5802 ft | 251 kts | 230° |
| 2026-04-17 14:48 | 41.69649 | 9.39516 | 5581 ft | 249 kts | 230° |
| 2026-04-17 14:48 | 41.68504 | 9.37790 | 5337 ft | 248 kts | 230° |
| 2026-04-17 14:48 | 41.67366 | 9.36070 | 5116 ft | 246 kts | 230° |
| 2026-04-17 14:49 | 41.66234 | 9.34360 | 4864 ft | 245 kts | 229° |
| 2026-04-17 14:49 | 41.65134 | 9.32671 | 4663 ft | 236 kts | 231° |
| 2026-04-17 14:49 | 41.64083 | 9.31038 | 4437 ft | 227 kts | 230° |
| 2026-04-17 14:49 | 41.63070 | 9.29465 | 4210 ft | 218 kts | 231° |
| 2026-04-17 14:50 | 41.62101 | 9.27963 | 4038 ft | 207 kts | 230° |
| 2026-04-17 14:50 | 41.61178 | 9.26532 | 4009 ft | 202 kts | 231° |
| 2026-04-17 14:50 | 41.60252 | 9.25100 | 3997 ft | 205 kts | 231° |
| 2026-04-17 14:50 | 41.59295 | 9.23579 | 3424 ft | 226 kts | 231° |
| 2026-04-17 14:51 | 41.58238 | 9.21945 | 2712 ft | 238 kts | 230° |
| 2026-04-17 14:51 | 41.57148 | 9.20277 | 2264 ft | 237 kts | 231° |
| 2026-04-17 14:51 | 41.56079 | 9.18635 | 1897 ft | 231 kts | 230° |
| 2026-04-17 14:51 | 41.55043 | 9.17044 | 1546 ft | 223 kts | 231° |
| 2026-04-17 14:52 | 41.54048 | 9.15516 | 1202 ft | 211 kts | 230° |
| 2026-04-17 14:52 | 41.53125 | 9.14093 | 906 ft | 194 kts | 229° |
| 2026-04-17 14:52 | 41.52277 | 9.12792 | 607 ft | 178 kts | 227° |
| 2026-04-17 14:52 | 41.51548 | 9.11561 | 658 ft | 162 kts | 234° |
| 2026-04-17 14:53 | 41.50929 | 9.10279 | 766 ft | 167 kts | 237° |
| 2026-04-17 14:53 | 41.50192 | 9.08999 | 1272 ft | 184 kts | 227° |
| 2026-04-17 14:53 | 41.49280 | 9.07725 | 2119 ft | 194 kts | 230° |
| 2026-04-17 14:53 | 41.48367 | 9.06384 | 3201 ft | 193 kts | 230° |
| 2026-04-17 14:54 | 41.47487 | 9.05045 | 3707 ft | 193 kts | 231° |
| 2026-04-17 14:54 | 41.46608 | 9.03671 | 4001 ft | 198 kts | 232° |
| 2026-04-17 14:54 | 41.45715 | 9.02257 | 4002 ft | 199 kts | 231° |
| 2026-04-17 14:54 | 41.44629 | 9.01110 | 3996 ft | 205 kts | 201° |
| 2026-04-17 14:55 | 41.43217 | 9.01076 | 4013 ft | 208 kts | 162° |
| 2026-04-17 14:55 | 41.42048 | 9.02235 | 4019 ft | 220 kts | 122° |
| 2026-04-17 14:55 | 41.41655 | 9.04146 | 4006 ft | 217 kts | 81° |
| 2026-04-17 14:55 | 41.42257 | 9.05938 | 4025 ft | 215 kts | 53° |
| 2026-04-17 14:56 | 41.43112 | 9.07589 | 4021 ft | 217 kts | 53° |
| 2026-04-17 14:56 | 41.43966 | 9.09246 | 4014 ft | 216 kts | 54° |
| 2026-04-17 14:56 | 41.44805 | 9.10868 | 4017 ft | 210 kts | 53° |
| 2026-04-17 14:56 | 41.45632 | 9.12467 | 4004 ft | 209 kts | 53° |
| 2026-04-17 14:57 | 41.46461 | 9.14069 | 4003 ft | 210 kts | 53° |
| 2026-04-17 14:57 | 41.47290 | 9.15674 | 4004 ft | 211 kts | 53° |
| 2026-04-17 14:57 | 41.48119 | 9.17282 | 4004 ft | 210 kts | 55° |
| 2026-04-17 14:57 | 41.48654 | 9.19097 | 3988 ft | 212 kts | 77° |
| 2026-04-17 14:58 | 41.48762 | 9.21085 | 3899 ft | 220 kts | 95° |
| 2026-04-17 14:58 | 41.48506 | 9.23089 | 3825 ft | 217 kts | 98° |
| 2026-04-17 14:58 | 41.48260 | 9.25027 | 3817 ft | 206 kts | 97° |
| 2026-04-17 14:58 | 41.48029 | 9.26868 | 3805 ft | 199 kts | 97° |
| 2026-04-17 14:59 | 41.47806 | 9.28660 | 3798 ft | 199 kts | 97° |
| 2026-04-17 14:59 | 41.47584 | 9.30504 | 3793 ft | 199 kts | 94° |
| 2026-04-17 14:59 | 41.47772 | 9.32266 | 3808 ft | 194 kts | 67° |
| 2026-04-17 14:59 | 41.48401 | 9.33850 | 3794 ft | 193 kts | 51° |
| 2026-04-17 15:00 | 41.49384 | 9.35043 | 3796 ft | 191 kts | 31° |
| 2026-04-17 15:00 | 41.50582 | 9.35798 | 3809 ft | 190 kts | 16° |
| 2026-04-17 15:00 | 41.51887 | 9.36012 | 3799 ft | 190 kts | 355° |
| 2026-04-17 15:00 | 41.53208 | 9.35842 | 3809 ft | 191 kts | 354° |
| 2026-04-17 15:01 | 41.54532 | 9.35675 | 3802 ft | 192 kts | 354° |
| 2026-04-17 15:01 | 41.55862 | 9.35500 | 3799 ft | 192 kts | 354° |
| 2026-04-17 15:01 | 41.57193 | 9.35322 | 3799 ft | 192 kts | 354° |
| 2026-04-17 15:01 | 41.58519 | 9.35141 | 3791 ft | 190 kts | 354° |
| 2026-04-17 15:02 | 41.59780 | 9.34854 | 3767 ft | 178 kts | 337° |
| 2026-04-17 15:02 | 41.60764 | 9.34036 | 3776 ft | 159 kts | 320° |
| 2026-04-17 15:02 | 41.61496 | 9.32976 | 3796 ft | 154 kts | 305° |
| 2026-04-17 15:02 | 41.61986 | 9.31697 | 3809 ft | 157 kts | 289° |
| 2026-04-17 15:03 | 41.62179 | 9.30265 | 3801 ft | 157 kts | 272° |
| 2026-04-17 15:03 | 41.62111 | 9.28808 | 3803 ft | 158 kts | 261° |
| 2026-04-17 15:03 | 41.61787 | 9.27401 | 3787 ft | 160 kts | 240° |
| 2026-04-17 15:03 | 41.61061 | 9.26278 | 3742 ft | 164 kts | 230° |
| 2026-04-17 15:04 | 41.60281 | 9.25091 | 3402 ft | 166 kts | 231° |
| 2026-04-17 15:04 | 41.59539 | 9.23949 | 3088 ft | 160 kts | 231° |
| 2026-04-17 15:04 | 41.58805 | 9.22821 | 2831 ft | 161 kts | 231° |
| 2026-04-17 15:04 | 41.58080 | 9.21707 | 2584 ft | 156 kts | 231° |
| 2026-04-17 15:05 | 41.57370 | 9.20618 | 2349 ft | 155 kts | 231° |
| 2026-04-17 15:05 | 41.56661 | 9.19529 | 2113 ft | 156 kts | 232° |
| 2026-04-17 15:05 | 41.55954 | 9.18431 | 1851 ft | 156 kts | 231° |
| 2026-04-17 15:05 | 41.55246 | 9.17340 | 1572 ft | 156 kts | 231° |
| 2026-04-17 15:06 | 41.54536 | 9.16256 | 1351 ft | 155 kts | 231° |
| 2026-04-17 15:06 | 41.53826 | 9.15154 | 1150 ft | 157 kts | 231° |
| 2026-04-17 15:06 | 41.53129 | 9.14035 | 895 ft | 154 kts | 231° |
| 2026-04-17 15:06 | 41.52463 | 9.12960 | 609 ft | 149 kts | 227° |
| 2026-04-17 15:07 | 41.51757 | 9.11908 | 371 ft | 152 kts | 227° |
| 2026-04-17 15:07 | 41.51037 | 9.10872 | 144 ft | 152 kts | 225° |
| 2026-04-17 15:07 | 41.50362 | 9.09894 | 72 ft | 132 kts | 227° |
| 2026-04-17 15:07 | 41.49854 | 9.09156 | 68 ft | 75 kts | 227° |
| 2026-04-17 15:08 | 41.49594 | 9.08773 | 51 ft | 40 kts | 227° |
| 2026-04-17 15:08 | 41.49484 | 9.08620 | 46 ft | 13 kts | 186° |
| 2026-04-17 15:08 | 41.49475 | 9.08673 | 46 ft | 6 kts | 28° |
| 2026-04-17 15:08 | 41.49514 | 9.08698 | 48 ft | 6 kts | 26° |
| 2026-04-17 15:09 | 41.49549 | 9.08729 | 46 ft | 6 kts | 37° |
| 2026-04-17 15:09 | 41.49613 | 9.08807 | 52 ft | 22 kts | 46° |
| 2026-04-17 15:09 | 41.49719 | 9.08961 | 55 ft | 22 kts | 47° |
| 2026-04-17 15:09 | 41.49829 | 9.09118 | 67 ft | 25 kts | 47° |
| 2026-04-17 15:10 | 41.49894 | 9.09216 | 64 ft | 7 kts | 49° |
| 2026-04-17 15:10 | 41.49930 | 9.09268 | 74 ft | 9 kts | 47° |
| 2026-04-17 15:10 | 41.50006 | 9.09377 | 74 ft | 22 kts | 47° |
| 2026-04-17 15:11 | 41.50196 | 9.09678 | 69 ft | 14 kts | 102° |
| 2026-04-17 15:11 | 41.50145 | 9.09754 | 67 ft | 10 kts | 136° |
| 2026-04-17 15:11 | 41.50089 | 9.09809 | 68 ft | 10 kts | 169° |
| 2026-04-17 15:11 | 41.50032 | 9.09769 | 68 ft | 10 kts | 225° |
| 2026-04-17 15:12 | 41.49993 | 9.09765 | 68 ft | 5 kts | 146° |
| 2026-04-17 15:12 | 41.49970 | 9.09791 | 70 ft | 0 kts | 139° |
| 2026-04-17 15:12 | 41.49970 | 9.09790 | 70 ft | 0 kts | 139° |
| 2026-04-17 15:27 | 43.42157 | 10.87257 | 36058 ft | 458 kts | 210° |
| 2026-04-17 15:28 | 43.39314 | 10.85270 | 36060 ft | 458 kts | 210° |
| 2026-04-17 15:28 | 41.68514 | 9.37804 | 5370 ft | 248 kts | 230° |
| 2026-04-17 15:28 | 41.67373 | 9.36081 | 5115 ft | 246 kts | 229° |
| 2026-04-17 15:28 | 41.66241 | 9.34371 | 4866 ft | 245 kts | 229° |
| 2026-04-17 15:29 | 41.62471 | 9.28537 | 4105 ft | 212 kts | 231° |
| 2026-04-17 15:29 | 41.54422 | 9.16091 | 1330 ft | 217 kts | 231° |
| 2026-04-17 15:29 | 41.47823 | 9.05560 | 3550 ft | 195 kts | 231° |
| 2026-04-17 15:29 | 41.41757 | 9.04764 | 4003 ft | 214 kts | 67° |
| 2026-04-17 15:30 | 41.55308 | 9.17435 | 1605 ft | 155 kts | 231° |
| 2026-04-17 15:30 | 41.54581 | 9.16325 | 1363 ft | 155 kts | 231° |